Time;durP1;ratioP1;P1;durP2;ratioP2;P2;SDS_P1;SDS_P2;PMS_P1;PMS_P2;Temp;Humidity;BMP_temperature;BMP_pressure;BME280_temperature;BME280_humidity;BME280_pressure;Samples;Min_cycle;Max_cycle;Signal;HPM_P1;HPM_P2
2022/11/19 00:01:13;;;;;;;3.30;2.95;;;;;;;8.01;100.00;97693.59;4137228;28;20201;-48
2022/11/19 00:03:17;;;;;;;2.38;2.15;;;;;;;8.13;100.00;97698.91;4138714;28;20224;-48
2022/11/19 00:05:19;;;;;;;3.17;2.88;;;;;;;8.02;100.00;97708.03;4140007;28;20296;-47
2022/11/19 00:07:20;;;;;;;5.05;2.58;;;;;;;8.02;100.00;97697.16;4152630;28;20212;-48
2022/11/19 00:09:22;;;;;;;4.10;3.80;;;;;;;8.07;100.00;97706.19;4146342;28;20206;-49
2022/11/19 00:13:48;;;;;;;3.95;3.45;;;;;;;8.04;100.00;97695.81;4138522;28;20229;-48
2022/11/19 00:15:50;;;;;;;5.25;3.67;;;;;;;8.13;100.00;97698.91;4154582;28;20309;-47
2022/11/19 00:17:52;;;;;;;4.47;4.07;;;;;;;7.96;100.00;97693.50;4139687;28;20241;-47
2022/11/19 00:19:54;;;;;;;6.43;3.97;;;;;;;7.92;100.00;97691.56;4135328;28;20198;-50
2022/11/19 00:21:56;;;;;;;4.57;2.50;;;;;;;7.87;100.00;97696.94;4153074;28;20324;-47
2022/11/19 00:23:57;;;;;;;3.63;2.72;;;;;;;7.80;100.00;97699.84;4118844;28;20757;-48
2022/11/19 00:26:11;;;;;;;3.40;2.88;;;;;;;7.82;100.00;97696.88;4153611;28;20204;-47
2022/11/19 00:28:12;;;;;;;3.53;2.92;;;;;;;7.67;100.00;97697.50;4137337;28;20339;-49
2022/11/19 00:30:15;;;;;;;3.78;3.40;;;;;;;7.81;100.00;97697.97;4151302;28;20316;-48
2022/11/19 00:32:36;;;;;;;5.03;2.83;;;;;;;7.79;100.00;97711.00;4149057;28;20209;-48
2022/11/19 00:34:38;;;;;;;4.93;4.40;;;;;;;7.83;100.00;97704.78;4139476;28;20213;-48
2022/11/19 00:36:40;;;;;;;3.00;2.72;;;;;;;7.87;100.00;97707.81;4141265;28;20233;-47
2022/11/19 00:38:42;;;;;;;3.58;3.28;;;;;;;7.96;100.00;97704.41;4139380;28;20240;-48
2022/11/19 00:40:43;;;;;;;3.88;2.88;;;;;;;7.96;100.00;97698.16;4139412;28;20612;-47
2022/11/19 00:43:45;;;;;;;3.47;2.85;;;;;;;7.79;100.00;97702.81;4148796;28;20251;-48
2022/11/19 00:45:07;;;;;;;3.47;3.20;;;;;;;7.76;100.00;97706.06;4137278;28;20205;-47
2022/11/19 00:47:09;;;;;;;3.63;3.33;;;;;;;7.95;100.00;97707.41;4137360;28;20714;-47
2022/11/19 00:49:11;;;;;;;4.07;3.13;;;;;;;7.89;100.00;97703.78;4146020;28;20300;-47
2022/11/19 00:51:13;;;;;;;4.63;2.92;;;;;;;7.85;100.00;97708.09;4149283;28;20225;-50
2022/11/19 00:53:14;;;;;;;3.28;3.08;;;;;;;7.80;100.00;97707.19;4150327;28;20229;-47
2022/11/19 00:55:16;;;;;;;3.70;3.03;;;;;;;7.81;100.00;97706.94;4136852;28;20213;-47
2022/11/19 00:57:18;;;;;;;3.35;3.15;;;;;;;7.83;100.00;97706.69;4150389;28;20209;-48
2022/11/19 00:59:20;;;;;;;3.80;3.22;;;;;;;7.89;100.00;97719.31;4123949;28;20354;-47
2022/11/19 01:01:24;;;;;;;4.35;3.88;;;;;;;7.86;100.00;97715.19;4140289;28;20675;-47
2022/11/19 01:03:26;;;;;;;3.22;2.92;;;;;;;7.81;100.00;97706.13;4139639;28;20233;-48
2022/11/19 01:05:27;;;;;;;4.43;3.40;;;;;;;7.90;100.00;97710.88;4150959;28;21188;-48
2022/11/19 01:07:29;;;;;;;4.43;4.03;;;;;;;7.85;100.00;97708.09;4139877;28;20213;-47
2022/11/19 01:09:31;;;;;;;10.82;3.58;;;;;;;7.83;100.00;97714.88;4136897;28;20210;-48
2022/11/19 01:11:34;;;;;;;3.63;3.33;;;;;;;7.78;100.00;97712.06;4139508;28;20232;-47
2022/11/19 01:13:36;;;;;;;3.00;2.78;;;;;;;7.85;100.00;97713.53;4148256;28;20260;-47
2022/11/19 01:15:38;;;;;;;6.32;2.53;;;;;;;7.87;100.00;97721.44;4154286;28;20296;-48
2022/11/19 01:17:39;;;;;;;3.65;2.85;;;;;;;7.77;100.00;97713.16;4118463;28;20237;-48
2022/11/19 01:19:41;;;;;;;3.22;3.03;;;;;;;7.88;100.00;97717.66;4137952;28;20359;-49
2022/11/19 01:21:43;;;;;;;3.25;3.05;;;;;;;7.89;100.00;97714.66;4138224;28;20219;-47
2022/11/19 01:23:45;;;;;;;3.25;3.05;;;;;;;7.77;100.00;97715.88;4139588;28;20242;-47
2022/11/19 01:25:47;;;;;;;4.13;3.30;;;;;;;7.79;100.00;97705.53;4139615;28;20244;-47
2022/11/19 01:27:48;;;;;;;2.95;2.75;;;;;;;7.74;100.00;97716.38;4137204;28;20240;-47
2022/11/19 01:29:50;;;;;;;3.55;3.10;;;;;;;7.91;100.00;97712.53;4149847;28;20865;-47
2022/11/19 01:31:52;;;;;;;3.38;3.15;;;;;;;7.90;100.00;97720.97;4150110;28;20240;-48
2022/11/19 01:33:54;;;;;;;3.28;2.97;;;;;;;7.88;100.00;97712.22;4151837;28;20316;-47
2022/11/19 01:35:57;;;;;;;2.55;2.38;;;;;;;7.94;100.00;97705.75;4138276;28;20841;-47
2022/11/19 01:37:59;;;;;;;3.40;3.10;;;;;;;7.93;100.00;97706.81;4153655;28;20296;-47
2022/11/19 01:40:01;;;;;;;2.85;2.45;;;;;;;7.95;100.00;97704.69;4141667;28;20296;-47
2022/11/19 01:42:03;;;;;;;2.15;2.05;;;;;;;8.07;100.00;97711.66;4139536;28;20204;-47
2022/11/19 01:44:06;;;;;;;2.45;2.25;;;;;;;7.86;100.00;97703.47;4140197;28;20225;-47
2022/11/19 01:46:10;;;;;;;3.05;2.75;;;;;;;7.98;100.00;97706.88;4150092;28;20213;-47
2022/11/19 01:48:15;;;;;;;2.63;2.42;;;;;;;7.91;100.00;97717.16;4148663;28;20216;-47
2022/11/19 01:50:17;;;;;;;2.17;1.98;;;;;;;7.92;100.00;97714.19;4136363;28;20307;-47
2022/11/19 01:52:19;;;;;;;4.85;2.50;;;;;;;7.91;100.00;97712.53;4136676;28;20722;-47
2022/11/19 01:54:24;;;;;;;4.30;2.33;;;;;;;7.96;100.00;97717.22;4118849;28;20321;-48
2022/11/19 01:56:27;;;;;;;4.93;2.28;;;;;;;8.03;100.00;97715.13;4139584;28;20210;-47
2022/11/19 01:58:41;;;;;;;3.05;2.67;;;;;;;8.06;100.00;97720.06;4132052;28;20731;-48
2022/11/19 02:00:42;;;;;;;2.50;2.40;;;;;;;8.02;100.00;97718.94;4133819;28;20224;-48
2022/11/19 02:02:44;;;;;;;2.35;2.15;;;;;;;8.09;100.00;97717.66;4130469;28;20300;-50
2022/11/19 02:04:46;;;;;;;2.60;2.40;;;;;;;8.01;100.00;97722.75;4133410;28;20210;-47
2022/11/19 02:06:48;;;;;;;2.53;2.33;;;;;;;8.01;100.00;97715.38;4137842;28;20213;-48
2022/11/19 02:08:50;;;;;;;3.78;2.83;;;;;;;7.98;100.00;97715.06;4139238;28;20300;-48
2022/11/19 02:11:09;;;;;;;3.95;3.65;;;;;;;8.00;100.00;97721.06;4136466;28;20596;-48
2022/11/19 02:13:20;;;;;;;2.42;2.28;;;;;;;8.00;100.00;97718.34;4152385;28;20220;-47
2022/11/19 02:15:32;;;;;;;5.97;2.50;;;;;;;7.97;100.00;97713.41;4137005;28;20557;-47
2022/11/19 02:17:55;;;;;;;4.55;4.15;;;;;;;8.06;100.00;97720.06;4134612;28;20543;-47
2022/11/19 02:20:16;;;;;;;2.88;2.63;;;;;;;8.03;100.00;97715.13;4135168;28;20252;-48
2022/11/19 02:22:30;;;;;;;4.00;3.05;;;;;;;8.00;100.00;97721.06;4136972;28;20293;-47
2022/11/19 02:24:39;;;;;;;3.45;3.15;;;;;;;8.12;100.00;97713.59;4137879;28;20311;-47
2022/11/19 02:26:50;;;;;;;3.15;2.85;;;;;;;8.03;100.00;97715.94;4138149;28;20292;-47
2022/11/19 02:28:58;;;;;;;3.63;3.40;;;;;;;8.12;100.00;97719.06;4130850;28;20273;-47
2022/11/19 02:31:22;;;;;;;4.63;2.90;;;;;;;8.10;100.00;97722.03;4123900;28;20337;-47
2022/11/19 02:33:50;;;;;;;2.72;2.63;;;;;;;8.11;100.00;97720.13;4130311;28;20284;-48
2022/11/19 02:36:14;;;;;;;6.00;2.63;;;;;;;8.11;100.00;97718.25;4126761;28;20214;-47
2022/11/19 02:38:29;;;;;;;2.70;2.50;;;;;;;8.10;100.00;97715.75;4133783;28;20285;-47
2022/11/19 02:40:37;;;;;;;3.13;2.88;;;;;;;8.09;100.00;97708.66;4138079;28;20431;-50
2022/11/19 02:43:01;;;;;;;3.83;3.05;;;;;;;8.08;100.00;97709.75;4138818;28;20283;-48
2022/11/19 02:45:09;;;;;;;4.97;3.17;;;;;;;8.06;100.00;97709.16;4134068;28;20206;-48
2022/11/19 02:47:15;;;;;;;3.97;3.50;;;;;;;7.96;100.00;97717.22;4117100;28;20212;-48
2022/11/19 02:49:20;;;;;;;8.02;3.90;;;;;;;7.99;100.00;97705.81;4116464;28;20206;-48
2022/11/19 02:51:23;;;;;;;5.85;3.40;;;;;;;8.03;100.00;97705.03;4136923;28;20809;-47
2022/11/19 02:53:24;;;;;;;4.78;4.25;;;;;;;7.99;100.00;97711.25;4135743;28;20651;-47
2022/11/19 02:55:26;;;;;;;5.32;4.05;;;;;;;7.99;100.00;97705.81;4130109;28;20223;-47
2022/11/19 02:57:28;;;;;;;5.40;4.13;;;;;;;8.04;100.00;97705.88;4149365;28;20208;-47
2022/11/19 03:04:56;;;;;;;4.82;3.47;;;;;;;7.97;100.00;97716.16;4135291;28;20213;-48
2022/11/19 03:07:05;;;;;;;3.63;3.33;;;;;;;8.02;100.00;97727.91;4134957;28;20237;-48
2022/11/19 03:09:07;;;;;;;3.88;3.58;;;;;;;8.05;100.00;97723.88;4151023;28;20236;-48
2022/11/19 03:11:25;;;;;;;5.47;4.05;;;;;;;7.96;100.00;97725.41;4140075;28;20337;-48
2022/11/19 03:18:26;;;;;;;4.07;3.67;;;;;;;7.95;100.00;97718.31;4135910;28;20297;-47
2022/11/19 03:20:28;;;;;;;4.15;3.65;;;;;;;7.89;100.00;97724.75;4119492;28;20215;-48
2022/11/19 03:22:38;;;;;;;5.70;3.80;;;;;;;7.99;100.00;97724.88;4154606;28;20350;-48
2022/11/19 03:24:59;;;;;;;3.90;3.60;;;;;;;7.92;100.00;97725.06;4136416;28;20201;-47
2022/11/19 03:27:15;;;;;;;6.05;5.07;;;;;;;7.92;100.00;97719.63;4136788;28;20226;-51
2022/11/19 03:29:17;;;;;;;4.53;4.13;;;;;;;7.91;100.00;97728.03;4138833;28;20204;-48
2022/11/19 03:31:21;;;;;;;3.90;3.58;;;;;;;7.90;100.00;97721.75;4143710;28;20246;-48
2022/11/19 03:33:33;;;;;;;4.93;4.53;;;;;;;7.99;100.00;97719.44;4151752;28;20226;-47
2022/11/19 03:35:39;;;;;;;3.63;3.30;;;;;;;8.04;100.00;97727.69;4141218;28;20292;-47
2022/11/19 03:37:43;;;;;;;3.17;2.97;;;;;;;8.00;100.00;97726.53;4142714;28;20837;-47
2022/11/19 03:39:46;;;;;;;3.42;3.20;;;;;;;7.98;100.00;97731.41;4138726;28;20248;-47
2022/11/19 03:41:48;;;;;;;3.92;3.47;;;;;;;8.04;100.00;97727.69;4125542;28;21141;-47
2022/11/19 03:43:53;;;;;;;3.70;3.40;;;;;;;8.14;100.00;97727.78;4135926;28;20229;-48
2022/11/19 03:45:56;;;;;;;5.30;3.85;;;;;;;8.08;100.00;97734.28;4137620;28;20288;-49
2022/11/19 03:47:59;;;;;;;3.42;3.13;;;;;;;8.11;100.00;97739.19;4137616;28;20573;-47
2022/11/19 03:50:27;;;;;;;3.72;3.42;;;;;;;8.13;100.00;97737.03;4132248;28;21125;-47
2022/11/19 03:52:28;;;;;;;7.80;3.17;;;;;;;8.09;100.00;97741.38;4135193;28;20234;-47
2022/11/19 03:54:30;;;;;;;2.83;2.45;;;;;;;8.00;100.00;97740.13;4140118;28;20697;-47
2022/11/19 03:56:34;;;;;;;4.72;2.92;;;;;;;7.98;100.00;97739.56;4120738;28;20215;-47
2022/11/19 03:58:42;;;;;;;3.85;3.45;;;;;;;8.01;100.00;97744.53;4141594;28;20240;-47
2022/11/19 04:00:44;;;;;;;6.63;3.15;;;;;;;8.08;100.00;97745.19;4130595;28;20205;-48
2022/11/19 04:02:45;;;;;;;3.75;3.20;;;;;;;8.05;100.00;97740.22;4142231;28;20327;-47
2022/11/19 04:04:50;;;;;;;3.45;3.15;;;;;;;8.13;100.00;97745.22;4137546;28;20691;-47
2022/11/19 04:06:52;;;;;;;2.78;2.38;;;;;;;8.08;100.00;97745.19;4135903;28;20268;-48
2022/11/19 04:08:53;;;;;;;2.75;2.55;;;;;;;8.00;100.00;97738.25;4135910;28;20202;-48
2022/11/19 04:10:56;;;;;;;3.28;2.97;;;;;;;8.11;100.00;97740.03;4151262;28;20670;-48
2022/11/19 04:12:57;;;;;;;4.15;2.63;;;;;;;8.19;100.00;97741.47;4142517;28;20750;-48
2022/11/19 04:14:59;;;;;;;2.95;2.75;;;;;;;8.12;100.00;97743.56;4140214;28;20209;-47
2022/11/19 04:17:01;;;;;;;3.15;2.85;;;;;;;7.94;100.00;97741.16;4139829;28;20215;-48
2022/11/19 04:19:03;;;;;;;3.60;3.25;;;;;;;7.90;100.00;97742.75;4125637;28;20210;-47
2022/11/19 04:21:04;;;;;;;4.25;3.95;;;;;;;7.94;100.00;97744.72;4142757;28;20296;-47
2022/11/19 04:23:06;;;;;;;3.92;3.33;;;;;;;8.05;100.00;97748.38;4137753;28;20968;-48
2022/11/19 04:25:08;;;;;;;10.93;2.97;;;;;;;7.85;100.00;97746.22;4121702;28;20205;-48
2022/11/19 04:27:10;;;;;;;3.15;2.75;;;;;;;7.77;100.00;97751.28;4124724;28;20343;-47
2022/11/19 04:29:12;;;;;;;4.13;3.47;;;;;;;7.81;100.00;97744.25;4136920;28;20206;-48
2022/11/19 04:31:14;;;;;;;3.10;2.90;;;;;;;7.79;100.00;97743.66;4140026;28;20758;-49
2022/11/19 04:33:18;;;;;;;3.63;3.33;;;;;;;7.88;100.00;97747.63;4136109;28;20344;-48
2022/11/19 04:35:20;;;;;;;2.75;2.50;;;;;;;7.90;100.00;97753.63;4135263;28;20330;-48
2022/11/19 04:37:22;;;;;;;2.70;2.50;;;;;;;7.99;100.00;97752.13;4140120;28;20224;-48
2022/11/19 04:39:24;;;;;;;3.83;3.53;;;;;;;7.81;100.00;97750.50;4154308;28;20567;-47
2022/11/19 04:41:26;;;;;;;4.05;3.75;;;;;;;8.02;100.00;97751.63;4137255;28;20417;-47
2022/11/19 04:43:27;;;;;;;3.45;3.15;;;;;;;7.90;100.00;97753.63;4139976;28;20319;-47
2022/11/19 04:45:30;;;;;;;3.90;3.22;;;;;;;7.86;100.00;97747.03;4135355;28;20335;-47
2022/11/19 04:47:31;;;;;;;3.45;2.92;;;;;;;7.88;100.00;97753.06;4137264;28;20762;-48
2022/11/19 04:49:33;;;;;;;2.90;2.70;;;;;;;7.84;100.00;97757.38;4121970;28;20325;-47
2022/11/19 04:51:35;;;;;;;3.03;2.80;;;;;;;7.82;100.00;97751.34;4133542;28;20340;-47
2022/11/19 04:53:36;;;;;;;3.83;3.53;;;;;;;7.81;100.00;97760.59;4136656;28;20265;-48
2022/11/19 04:55:38;;;;;;;5.68;3.97;;;;;;;7.82;100.00;97759.53;4137365;28;20220;-47
2022/11/19 04:57:40;;;;;;;4.72;3.35;;;;;;;7.83;100.00;97759.25;4152512;28;20211;-48
2022/11/19 04:59:41;;;;;;;2.65;2.45;;;;;;;7.78;100.00;97755.66;4139569;28;20210;-47
2022/11/19 05:01:43;;;;;;;2.45;2.25;;;;;;;7.82;100.00;97760.31;4140562;28;20745;-48
2022/11/19 05:03:46;;;;;;;4.00;3.30;;;;;;;7.77;100.00;97756.72;4132469;28;20233;-47
2022/11/19 05:05:48;;;;;;;4.20;2.85;;;;;;;7.71;100.00;97760.44;4130026;28;20245;-47
2022/11/19 05:07:50;;;;;;;3.28;2.95;;;;;;;7.63;100.00;97753.50;4134986;28;21874;-47
2022/11/19 05:09:52;;;;;;;2.75;2.55;;;;;;;7.69;100.00;97759.88;4117301;28;20206;-48
2022/11/19 05:11:53;;;;;;;3.88;3.60;;;;;;;7.78;100.00;97752.91;4139702;28;20734;-49
2022/11/19 05:13:55;;;;;;;2.88;2.67;;;;;;;7.74;100.00;97759.94;4137586;28;20220;-47
2022/11/19 05:15:57;;;;;;;2.90;2.58;;;;;;;7.69;100.00;97768.84;4142603;28;20296;-47
2022/11/19 05:17:58;;;;;;;3.35;3.15;;;;;;;7.78;100.00;97761.09;4138486;28;20667;-47
2022/11/19 05:20:00;;;;;;;3.55;2.78;;;;;;;7.69;100.00;97757.16;4140744;28;20205;-47
2022/11/19 05:22:02;;;;;;;3.85;3.55;;;;;;;7.74;100.00;97757.19;4137396;28;20300;-46
2022/11/19 05:24:04;;;;;;;6.13;3.75;;;;;;;7.71;100.00;97760.44;4136130;28;20241;-47
2022/11/19 05:26:05;;;;;;;10.52;3.85;;;;;;;7.89;100.00;97757.44;4136763;28;20219;-47
2022/11/19 05:28:07;;;;;;;3.67;3.03;;;;;;;7.82;100.00;97757.59;4140998;28;20218;-47
2022/11/19 05:30:09;;;;;;;3.45;3.15;;;;;;;7.85;100.00;97757.13;4153468;28;21135;-47
2022/11/19 05:32:11;;;;;;;3.03;2.80;;;;;;;7.86;100.00;97757.94;4140087;28;20229;-47
2022/11/19 05:34:13;;;;;;;3.92;3.42;;;;;;;7.96;100.00;97752.63;4140487;28;20331;-48
2022/11/19 05:36:15;;;;;;;2.95;2.75;;;;;;;7.79;100.00;97757.28;4125708;28;20305;-47
2022/11/19 05:38:16;;;;;;;5.10;3.53;;;;;;;7.76;100.00;97763.25;4142192;28;20296;-47
2022/11/19 05:40:18;;;;;;;4.25;3.13;;;;;;;7.80;100.00;97748.03;4151049;28;20205;-47
2022/11/19 05:42:20;;;;;;;3.00;2.75;;;;;;;7.85;100.00;97761.72;4139393;28;20639;-47
2022/11/19 05:44:22;;;;;;;13.02;2.85;;;;;;;7.84;100.00;97760.94;4136564;28;20285;-47
2022/11/19 05:46:23;;;;;;;4.63;2.75;;;;;;;7.77;100.00;97764.91;4129251;28;20307;-47
2022/11/19 05:48:25;;;;;;;3.10;2.80;;;;;;;7.79;100.00;97760.00;4135986;28;20204;-47
2022/11/19 05:50:27;;;;;;;3.38;3.08;;;;;;;7.79;100.00;97768.19;4136813;28;20206;-47
2022/11/19 05:52:28;;;;;;;3.42;3.22;;;;;;;7.76;100.00;97769.50;4137804;28;20233;-47
2022/11/19 05:54:30;;;;;;;3.17;2.97;;;;;;;7.84;100.00;97760.94;4135457;28;20364;-48
2022/11/19 05:56:32;;;;;;;3.08;2.67;;;;;;;7.90;100.00;97765.34;4136482;28;20621;-47
2022/11/19 05:58:33;;;;;;;2.40;2.10;;;;;;;7.90;100.00;97764.53;4139296;28;20303;-46
2022/11/19 06:00:35;;;;;;;3.40;3.13;;;;;;;7.84;100.00;97763.66;4134405;28;20213;-47
2022/11/19 06:02:37;;;;;;;4.60;3.38;;;;;;;7.79;100.00;97768.19;4137321;28;20292;-47
2022/11/19 06:04:38;;;;;;;3.22;2.92;;;;;;;7.80;100.00;97775.28;4138808;28;20276;-47
2022/11/19 06:06:40;;;;;;;2.97;2.78;;;;;;;7.64;100.00;97776.13;4134191;28;20620;-47
2022/11/19 06:08:42;;;;;;;9.02;3.00;;;;;;;7.68;100.00;97771.84;4134528;28;20209;-47
2022/11/19 06:10:43;;;;;;;3.55;3.10;;;;;;;7.70;100.00;97764.25;4139746;28;20313;-47
2022/11/19 06:12:45;;;;;;;3.55;3.35;;;;;;;7.70;100.00;97769.69;4138964;28;20666;-47
2022/11/19 06:14:47;;;;;;;3.55;3.10;;;;;;;7.69;100.00;97759.88;4150975;28;20299;-47
2022/11/19 06:16:56;;;;;;;3.72;3.13;;;;;;;7.69;100.00;97768.06;4135100;28;20612;-47
2022/11/19 06:18:58;;;;;;;5.47;3.65;;;;;;;7.77;100.00;97773.06;4134668;28;20205;-47
2022/11/19 06:21:00;;;;;;;3.90;3.63;;;;;;;7.69;100.00;97763.41;4137993;28;20232;-48
2022/11/19 06:23:01;;;;;;;3.30;2.90;;;;;;;7.74;100.00;97765.38;4140777;28;20331;-48
2022/11/19 06:25:04;;;;;;;2.63;2.42;;;;;;;7.81;100.00;97766.84;4152543;28;20209;-46
2022/11/19 06:27:06;;;;;;;4.90;2.50;;;;;;;7.69;100.00;97768.06;4139202;28;20658;-47
2022/11/19 06:29:09;;;;;;;3.13;2.88;;;;;;;7.79;100.00;97779.06;4152438;28;20295;-47
2022/11/19 06:31:11;;;;;;;2.72;2.53;;;;;;;7.67;100.00;97781.06;4150931;28;20687;-48
2022/11/19 06:33:12;;;;;;;3.65;3.35;;;;;;;7.75;100.00;97772.50;4138127;28;20249;-47
2022/11/19 06:35:14;;;;;;;2.47;2.28;;;;;;;7.82;100.00;97781.31;4137914;28;20298;-47
2022/11/19 06:37:16;;;;;;;2.95;2.75;;;;;;;7.73;100.00;97775.47;4116841;28;20321;-47
2022/11/19 06:39:18;;;;;;;2.63;2.42;;;;;;;7.61;100.00;97782.91;4134751;28;20296;-47
2022/11/19 06:41:20;;;;;;;2.42;2.22;;;;;;;7.70;100.00;97777.84;4137908;28;20257;-47
2022/11/19 06:43:22;;;;;;;4.55;3.15;;;;;;;7.80;100.00;97773.38;4129325;28;20221;-47
2022/11/19 06:45:24;;;;;;;3.35;3.05;;;;;;;7.86;100.00;97775.09;4150200;28;20205;-47
2022/11/19 06:47:25;;;;;;;3.47;3.15;;;;;;;7.77;100.00;97781.22;4135773;28;20296;-47
2022/11/19 06:49:27;;;;;;;3.38;2.67;;;;;;;7.81;100.00;97788.66;4149006;28;20307;-47
2022/11/19 06:51:29;;;;;;;2.50;2.35;;;;;;;7.77;100.00;97781.22;4134040;28;20213;-47
2022/11/19 06:53:31;;;;;;;6.50;2.50;;;;;;;7.78;100.00;97794.59;4138375;28;20232;-47
2022/11/19 06:55:33;;;;;;;2.05;1.92;;;;;;;7.85;100.00;97794.41;4123668;28;20300;-48
2022/11/19 06:57:35;;;;;;;2.47;2.17;;;;;;;7.70;100.00;97791.47;4153722;28;20208;-47
2022/11/19 06:59:37;;;;;;;3.10;2.90;;;;;;;7.81;100.00;97804.97;4154762;28;20694;-47
2022/11/19 07:01:39;;;;;;;2.05;1.92;;;;;;;7.84;100.00;97800.94;4155254;28;20651;-47
2022/11/19 07:03:41;;;;;;;2.05;1.95;;;;;;;7.86;100.00;97798.78;4137024;28;20222;-47
2022/11/19 07:05:43;;;;;;;1.58;1.48;;;;;;;7.76;100.00;97804.09;4140513;28;20219;-47
2022/11/19 07:07:44;;;;;;;2.35;2.15;;;;;;;7.79;100.00;97803.56;4140265;28;20252;-47
2022/11/19 07:09:46;;;;;;;2.00;1.85;;;;;;;7.83;100.00;97810.19;4143824;28;20351;-47
2022/11/19 07:11:48;;;;;;;2.08;1.88;;;;;;;7.79;100.00;97806.31;4154262;28;20266;-47
2022/11/19 07:13:56;;;;;;;1.50;1.40;;;;;;;7.73;100.00;97812.75;4141246;28;20687;-47
2022/11/19 07:16:01;;;;;;;1.38;1.38;;;;;;;7.68;100.00;97799.06;4139072;28;20304;-47
2022/11/19 07:18:03;;;;;;;2.10;1.90;;;;;;;7.64;100.00;97806.91;4137832;28;20285;-47
2022/11/19 07:20:05;;;;;;;2.05;1.88;;;;;;;7.64;100.00;97809.63;4137466;28;20207;-46
2022/11/19 07:22:07;;;;;;;1.65;1.35;;;;;;;7.58;100.00;97809.78;4140262;28;20343;-46
2022/11/19 07:24:09;;;;;;;1.95;1.40;;;;;;;7.64;100.00;97804.19;4140799;28;20312;-47
2022/11/19 07:26:11;;;;;;;1.10;1.10;;;;;;;7.62;100.00;97816.41;4141331;28;20300;-47
2022/11/19 07:28:12;;;;;;;1.50;1.40;;;;;;;7.53;100.00;97813.25;4134320;28;20225;-47
2022/11/19 07:30:15;;;;;;;1.65;1.55;;;;;;;7.58;100.00;97817.97;4150584;28;20205;-48
2022/11/19 07:32:16;;;;;;;1.38;1.30;;;;;;;7.72;100.00;97816.53;4135355;28;20336;-47
2022/11/19 07:34:19;;;;;;;2.47;1.75;;;;;;;7.65;100.00;97821.34;4136240;28;20480;-47
2022/11/19 07:36:21;;;;;;;1.92;1.23;;;;;;;7.66;100.00;97817.53;4138697;28;20870;-47
2022/11/19 07:38:22;;;;;;;5.25;1.98;;;;;;;7.71;100.00;97820.34;4139525;28;20289;-47
2022/11/19 07:40:24;;;;;;;2.00;1.48;;;;;;;7.76;100.00;97823.16;4140336;28;20245;-47
2022/11/19 07:44:46;;;;;;;1.60;1.50;;;;;;;7.90;100.00;97824.44;4137965;28;20217;-47
2022/11/19 07:46:55;;;;;;;3.38;2.17;;;;;;;7.77;100.00;97825.63;4136648;28;20209;-48
2022/11/19 07:48:57;;;;;;;1.60;1.50;;;;;;;7.73;100.00;97829.06;4150967;28;20622;-47
2022/11/19 07:50:58;;;;;;;1.40;1.33;;;;;;;7.83;100.00;97834.69;4152397;28;20303;-47
2022/11/19 07:53:00;;;;;;;1.63;1.52;;;;;;;7.76;100.00;97828.59;4137548;28;20324;-47
2022/11/19 07:55:02;;;;;;;1.40;1.30;;;;;;;7.75;100.00;97837.84;4138047;28;20297;-47
2022/11/19 07:57:04;;;;;;;1.70;1.60;;;;;;;7.53;100.00;97840.47;4137922;28;20292;-47
2022/11/19 07:59:05;;;;;;;1.15;1.05;;;;;;;7.65;100.00;97837.69;4152322;28;20288;-47
2022/11/19 08:01:09;;;;;;;1.48;1.38;;;;;;;7.64;100.00;97847.75;4141296;28;20247;-47
2022/11/19 08:03:10;;;;;;;1.48;1.38;;;;;;;7.52;100.00;97844.28;4147885;28;20225;-49
2022/11/19 08:05:12;;;;;;;1.80;1.70;;;;;;;7.70;100.00;97845.94;4136892;28;20213;-47
2022/11/19 08:07:14;;;;;;;1.40;1.30;;;;;;;7.68;100.00;97845.38;4135991;28;20676;-47
2022/11/19 08:09:16;;;;;;;1.52;1.40;;;;;;;7.56;100.00;97844.63;4124531;28;20245;-49
2022/11/19 08:11:18;;;;;;;2.15;1.42;;;;;;;7.49;100.00;97842.03;4138886;28;20208;-47
2022/11/19 08:13:20;;;;;;;2.28;2.00;;;;;;;7.39;100.00;97839.16;4137271;28;20317;-46
2022/11/19 08:15:21;;;;;;;1.58;1.48;;;;;;;7.43;100.00;97839.50;4136930;28;20232;-47
2022/11/19 08:19:43;;;;;;;1.60;1.50;;;;;;;7.43;100.00;97844.94;4137773;28;20656;-49
2022/11/19 08:21:46;;;;;;;3.92;1.60;;;;;;;7.46;100.00;97844.44;4138634;28;20219;-47
2022/11/19 08:23:47;;;;;;;2.10;1.90;;;;;;;7.58;100.00;97850.63;4138785;28;20237;-47
2022/11/19 08:25:49;;;;;;;1.50;1.40;;;;;;;7.49;100.00;97844.75;4136484;28;20209;-47
2022/11/19 08:27:51;;;;;;;1.95;1.85;;;;;;;7.43;100.00;97850.38;4136846;28;20205;-47
2022/11/19 08:29:53;;;;;;;3.17;2.20;;;;;;;7.52;100.00;97855.16;4133509;28;20213;-47
2022/11/19 08:31:54;;;;;;;1.85;1.75;;;;;;;7.41;100.00;97855.25;4152161;28;20209;-47
2022/11/19 08:33:56;;;;;;;1.70;1.60;;;;;;;7.41;100.00;97850.63;4134226;28;20727;-47
2022/11/19 08:35:58;;;;;;;2.70;2.47;;;;;;;7.47;100.00;97856.97;4138525;28;20231;-47
2022/11/19 08:38:00;;;;;;;2.05;1.63;;;;;;;7.41;100.00;97857.97;4134570;28;20211;-46
2022/11/19 08:40:02;;;;;;;2.75;2.40;;;;;;;7.47;100.00;97862.41;4136554;28;20229;-46
2022/11/19 08:44:24;;;;;;;3.10;2.90;;;;;;;7.32;100.00;97863.00;4132295;28;20225;-45
2022/11/19 08:46:26;;;;;;;2.03;1.92;;;;;;;7.36;100.00;97869.56;4139941;28;20205;-46
2022/11/19 08:48:28;;;;;;;2.85;2.33;;;;;;;7.32;100.00;97878.47;4134426;28;20214;-45
2022/11/19 08:50:30;;;;;;;5.10;2.33;;;;;;;7.32;100.00;97873.03;4138570;28;20280;-45
2022/11/19 08:52:32;;;;;;;2.08;1.98;;;;;;;7.27;100.00;97872.94;4139048;28;20782;-45
2022/11/19 08:54:34;;;;;;;1.92;1.77;;;;;;;7.37;100.00;97878.56;4141307;28;20271;-45
2022/11/19 08:56:35;;;;;;;2.80;2.40;;;;;;;7.44;100.00;97873.81;4141497;28;20708;-46
2022/11/19 08:58:37;;;;;;;2.50;2.22;;;;;;;7.44;100.00;97879.25;4137348;28;20209;-45
2022/11/19 09:00:39;;;;;;;2.75;1.95;;;;;;;7.39;100.00;97876.44;4140532;28;20249;-45
2022/11/19 09:02:41;;;;;;;3.28;2.20;;;;;;;7.35;100.00;97880.72;4133724;28;20209;-45
2022/11/19 09:04:42;;;;;;;2.08;1.98;;;;;;;7.43;100.00;97885.75;4138961;28;21507;-45
2022/11/19 09:06:44;;;;;;;2.92;2.80;;;;;;;7.46;100.00;97882.53;4139343;28;20241;-45
2022/11/19 09:08:46;;;;;;;7.45;3.25;;;;;;;7.43;100.00;97880.31;4151165;28;20283;-45
2022/11/19 09:10:48;;;;;;;3.05;2.70;;;;;;;7.49;100.00;97882.88;4118478;28;20301;-48
2022/11/19 09:12:50;;;;;;;7.88;2.35;;;;;;;7.42;100.00;97881.41;4139394;28;20272;-47
2022/11/19 09:14:52;;;;;;;3.28;3.03;;;;;;;7.42;100.00;97875.94;4137498;28;20204;-46
2022/11/19 09:16:53;;;;;;;4.53;2.85;;;;;;;7.47;100.00;97884.19;4136224;28;20206;-45
2022/11/19 09:18:55;;;;;;;2.75;2.55;;;;;;;7.51;100.00;97890.78;4139975;28;20213;-46
2022/11/19 09:20:57;;;;;;;3.60;3.25;;;;;;;7.53;100.00;97886.75;4150092;28;20233;-46
2022/11/19 09:22:59;;;;;;;3.42;3.13;;;;;;;7.47;100.00;97889.63;4134685;28;20224;-47
2022/11/19 09:25:01;;;;;;;3.00;2.80;;;;;;;7.52;100.00;97887.00;4124015;28;20728;-48
2022/11/19 09:27:02;;;;;;;3.92;2.88;;;;;;;7.56;100.00;97893.63;4136241;28;20301;-46
2022/11/19 09:29:04;;;;;;;4.10;3.80;;;;;;;7.58;100.00;97903.19;4135297;28;20244;-47
2022/11/19 09:31:07;;;;;;;2.90;2.63;;;;;;;7.53;100.00;97904.97;4133996;28;20300;-46
2022/11/19 09:33:09;;;;;;;3.60;3.30;;;;;;;7.58;100.00;97899.63;4133254;28;20255;-46
2022/11/19 09:35:11;;;;;;;3.80;3.50;;;;;;;7.58;100.00;97905.06;4138294;28;20216;-46
2022/11/19 09:37:12;;;;;;;3.97;3.67;;;;;;;7.57;100.00;97906.97;4152657;28;20280;-46
2022/11/19 09:39:14;;;;;;;4.15;3.85;;;;;;;7.51;100.00;97909.84;4135152;28;20343;-46
2022/11/19 09:41:16;;;;;;;6.45;3.40;;;;;;;7.58;100.00;97910.50;4139271;28;20209;-46
2022/11/19 09:43:55;;;;;;;3.83;3.58;;;;;;;7.65;100.00;97916.63;4131285;28;20264;-45
2022/11/19 09:46:09;;;;;;;3.33;3.13;;;;;;;7.50;100.00;97913.66;4136100;28;20331;-45
2022/11/19 09:48:49;;;;;;;4.15;3.75;;;;;;;7.56;100.00;97918.91;4134790;28;21159;-46
2022/11/19 09:50:58;;;;;;;3.40;3.10;;;;;;;7.58;100.00;97924.13;4147726;28;20211;-45
2022/11/19 09:53:13;;;;;;;5.03;4.47;;;;;;;7.61;100.00;97929.09;4149020;28;20323;-45
2022/11/19 09:55:23;;;;;;;4.72;4.32;;;;;;;7.59;100.00;97923.06;4133764;28;20650;-46
2022/11/19 09:57:33;;;;;;;3.55;3.25;;;;;;;7.62;100.00;97920.66;4139730;28;20287;-45
2022/11/19 09:59:38;;;;;;;4.53;4.18;;;;;;;7.65;100.00;97922.06;4136921;28;20308;-46
2022/11/19 10:01:40;;;;;;;6.90;3.60;;;;;;;7.61;100.00;97923.66;4135873;28;20248;-45
2022/11/19 10:03:48;;;;;;;3.72;3.42;;;;;;;7.62;100.00;97930.75;4150568;28;20220;-45